Time;durP1;ratioP1;P1;durP2;ratioP2;P2;SDS_P1;SDS_P2;PMS_P1;PMS_P2;Temp;Humidity;BMP_temperature;BMP_pressure;BME280_temperature;BME280_humidity;BME280_pressure;Samples;Min_cycle;Max_cycle;Signal;HPM_P1;HPM_P2
2021/06/18 00:01:39;;;;;;;;;;;;;;;25.80;48.13;100827.38;5080741;28;19916;-62
2021/06/18 00:04:24;;;;;;;;;;;;;;;25.77;48.08;100813.50;5084562;28;20291;-62
2021/06/18 00:07:08;;;;;;;;;;;;;;;25.80;48.48;100821.03;5083836;28;20407;-62
2021/06/18 00:09:53;;;;;;;;;;;;;;;25.79;48.80;100825.81;5083910;28;19916;-62
2021/06/18 00:12:37;;;;;;;;;;;;;;;25.84;48.50;100821.78;5082014;28;19920;-63
2021/06/18 00:15:22;;;;;;;;;;;;;;;25.87;48.00;100826.50;5082343;28;19916;-63
2021/06/18 00:18:07;;;;;;;;;;;;;;;25.85;48.39;100824.13;5078961;28;19921;-63
2021/06/18 00:20:51;;;;;;;;;;;;;;;25.92;47.90;100812.09;5083430;28;19920;-63
2021/06/18 00:23:35;;;;;;;;;;;;;;;25.92;47.84;100815.69;5083945;28;19920;-63
2021/06/18 00:26:20;;;;;;;;;;;;;;;25.89;48.31;100807.38;5081949;28;19916;-63
2021/06/18 00:29:05;;;;;;;;;;;;;;;25.83;48.13;100809.84;5080190;28;19920;-63
2021/06/18 00:31:50;;;;;;;;;;;;;;;25.79;48.05;100808.31;5083953;28;19920;-63
2021/06/18 00:34:34;;;;;;;;;;;;;;;25.75;48.14;100805.53;5083300;28;19920;-63
2021/06/18 00:37:18;;;;;;;;;;;;;;;25.74;48.20;100803.19;5083143;28;20120;-63
2021/06/18 00:40:04;;;;;;;;;;;;;;;25.73;48.54;100807.19;5081279;28;19916;-62
2021/06/18 00:42:49;;;;;;;;;;;;;;;25.75;48.52;100804.78;5083141;28;19920;-62
2021/06/18 00:45:33;;;;;;;;;;;;;;;25.76;48.25;100811.91;5083258;28;19916;-63
2021/06/18 00:48:20;;;;;;;;;;;;;;;25.78;48.22;100809.50;5085350;28;19917;-62
2021/06/18 00:51:05;;;;;;;;;;;;;;;25.75;48.11;100807.56;5079645;28;19916;-63
2021/06/18 00:53:49;;;;;;;;;;;;;;;25.76;48.23;100804.34;5081126;28;19917;-62
2021/06/18 00:56:34;;;;;;;;;;;;;;;25.77;47.99;100808.72;5081550;28;19924;-63
2021/06/18 00:59:19;;;;;;;;;;;;;;;25.76;48.16;100806.34;5082345;28;19920;-62
2021/06/18 01:02:04;;;;;;;;;;;;;;;25.78;48.19;100815.06;5080942;28;19917;-62
2021/06/18 01:04:48;;;;;;;;;;;;;;;25.91;47.94;100814.09;5081969;28;19916;-62
2021/06/18 01:07:35;;;;;;;;;;;;;;;25.81;48.04;100817.00;5079198;28;19943;-63
2021/06/18 01:10:42;;;;;;;;;;;;;;;25.83;48.92;100822.97;5082409;28;19916;-63
2021/06/18 01:13:30;;;;;;;;;;;;;;;25.76;49.14;100820.25;5081161;28;20293;-63
2021/06/18 01:16:32;;;;;;;;;;;;;;;25.63;49.62;100827.59;5082284;28;19916;-63
2021/06/18 01:19:23;;;;;;;;;;;;;;;25.48;50.16;100827.72;5082109;28;19920;-62
2021/06/18 01:22:15;;;;;;;;;;;;;;;25.58;50.00;100828.84;5081776;28;19917;-63
2021/06/18 01:25:03;;;;;;;;;;;;;;;25.59;49.46;100829.63;5079325;28;19916;-63
2021/06/18 01:28:10;;;;;;;;;;;;;;;25.71;49.72;100826.28;5081217;28;19916;-62
2021/06/18 01:30:54;;;;;;;;;;;;;;;25.77;49.77;100833.78;5079054;28;20271;-63
2021/06/18 01:33:42;;;;;;;;;;;;;;;25.77;49.77;100841.34;5081045;28;19920;-63
2021/06/18 01:36:29;;;;;;;;;;;;;;;25.76;49.86;100834.19;5097695;28;19916;-62
2021/06/18 01:39:14;;;;;;;;;;;;;;;25.79;49.96;100819.44;5083529;28;19924;-63
2021/06/18 01:42:00;;;;;;;;;;;;;;;25.87;49.63;100818.13;5079666;28;19924;-63
2021/06/18 01:44:46;;;;;;;;;;;;;;;25.93;49.69;100816.47;5083079;28;19916;-63
2021/06/18 01:47:30;;;;;;;;;;;;;;;25.62;51.12;100812.88;5080322;28;19928;-62
2021/06/18 01:50:18;;;;;;;;;;;;;;;25.65;51.47;100816.84;5089209;28;19916;-62
2021/06/18 01:53:05;;;;;;;;;;;;;;;25.61;50.46;100816.06;5081021;28;20299;-63
2021/06/18 01:55:50;;;;;;;;;;;;;;;25.64;50.32;100813.25;5082272;28;19916;-63
2021/06/18 01:58:34;;;;;;;;;;;;;;;25.50;50.04;100816.16;5083506;28;20367;-63
2021/06/18 02:01:20;;;;;;;;;;;;;;;25.28;50.51;100820.38;5081705;28;19916;-62
2021/06/18 02:04:05;;;;;;;;;;;;;;;25.48;49.44;100805.44;5081396;28;19917;-63
2021/06/18 02:06:52;;;;;;;;;;;;;;;25.32;49.68;100804.41;5078909;28;19916;-62
2021/06/18 02:09:39;;;;;;;;;;;;;;;25.46;50.60;100804.25;5083134;28;19915;-62
2021/06/18 02:12:24;;;;;;;;;;;;;;;25.27;50.35;100805.66;5080698;28;19932;-62
2021/06/18 02:15:09;;;;;;;;;;;;;;;25.16;50.75;100807.75;5081569;28;19916;-62
2021/06/18 02:17:55;;;;;;;;;;;;;;;25.15;51.92;100797.81;5081369;28;19928;-63
2021/06/18 02:20:40;;;;;;;;;;;;;;;25.22;50.20;100800.53;5078786;28;19916;-63
2021/06/18 02:23:27;;;;;;;;;;;;;;;25.15;50.13;100786.69;5076950;28;19924;-61
2021/06/18 02:26:11;;;;;;;;;;;;;;;25.27;51.39;100783.38;5078399;28;19920;-62
2021/06/18 02:28:56;;;;;;;;;;;;;;;25.42;51.69;100786.81;5078814;28;20388;-62
2021/06/18 02:31:43;;;;;;;;;;;;;;;25.51;51.46;100779.53;5075979;28;20287;-64
2021/06/18 02:34:28;;;;;;;;;;;;;;;25.54;50.79;100792.66;5078454;28;21593;-63
2021/06/18 02:37:13;;;;;;;;;;;;;;;25.19;50.55;100790.25;5079299;28;19928;-62
2021/06/18 02:39:58;;;;;;;;;;;;;;;25.10;50.40;100792.69;5080719;28;19920;-62
2021/06/18 02:42:42;;;;;;;;;;;;;;;24.99;50.85;100794.81;5080594;28;19916;-62
2021/06/18 02:45:27;;;;;;;;;;;;;;;24.58;52.17;100794.72;5079816;28;19916;-63
2021/06/18 02:48:22;;;;;;;;;;;;;;;24.54;52.34;100794.72;5076852;28;20311;-63
2021/06/18 02:51:20;;;;;;;;;;;;;;;24.60;52.20;100798.66;5081865;28;19916;-63
2021/06/18 02:54:10;;;;;;;;;;;;;;;24.45;53.07;100794.41;5076551;28;19916;-63
2021/06/18 02:57:00;;;;;;;;;;;;;;;24.72;52.34;100794.59;5078779;28;20295;-62
2021/06/18 02:59:50;;;;;;;;;;;;;;;24.76;51.00;100808.47;5079988;28;19916;-61
2021/06/18 03:02:39;;;;;;;;;;;;;;;24.83;52.43;100808.44;5082164;28;19939;-63
2021/06/18 03:05:25;;;;;;;;;;;;;;;24.80;51.59;100812.00;5081137;28;19916;-63
2021/06/18 03:08:10;;;;;;;;;;;;;;;24.95;51.11;100819.88;5079995;28;19916;-62
2021/06/18 03:10:55;;;;;;;;;;;;;;;24.87;50.49;100821.13;5082568;28;19916;-63
2021/06/18 03:13:41;;;;;;;;;;;;;;;24.94;50.43;100820.28;5076548;28;19916;-62
2021/06/18 03:16:27;;;;;;;;;;;;;;;24.78;51.13;100825.56;5080675;28;19916;-62
2021/06/18 03:19:13;;;;;;;;;;;;;;;24.84;50.54;100821.16;5079866;28;19916;-61
2021/06/18 03:22:00;;;;;;;;;;;;;;;24.77;51.14;100823.97;5082396;28;19920;-62
2021/06/18 03:24:45;;;;;;;;;;;;;;;24.74;50.58;100825.56;5080578;28;20380;-63
2021/06/18 03:27:31;;;;;;;;;;;;;;;24.81;50.71;100828.31;5083975;28;19920;-62
2021/06/18 03:30:16;;;;;;;;;;;;;;;24.51;51.72;100823.34;5082118;28;19917;-62
2021/06/18 03:33:01;;;;;;;;;;;;;;;24.62;51.55;100829.66;5084894;28;20264;-61
2021/06/18 03:35:46;;;;;;;;;;;;;;;24.62;51.72;100835.22;5083267;28;19920;-62
2021/06/18 03:38:32;;;;;;;;;;;;;;;24.82;52.03;100837.44;5086490;28;19916;-62
2021/06/18 03:41:18;;;;;;;;;;;;;;;24.87;51.57;100837.00;5085741;28;20287;-62
2021/06/18 03:44:03;;;;;;;;;;;;;;;24.71;51.70;100838.31;5082175;28;19916;-62
2021/06/18 03:46:48;;;;;;;;;;;;;;;24.73;52.13;100839.91;5085350;28;20319;-62
2021/06/18 03:49:34;;;;;;;;;;;;;;;24.63;52.21;100836.00;5130649;27;19915;-62
2021/06/18 03:52:19;;;;;;;;;;;;;;;24.49;52.98;100834.09;5134192;27;20379;-62
2021/06/18 03:55:04;;;;;;;;;;;;;;;23.99;55.24;100835.50;5132128;27;19915;-61
2021/06/18 03:57:50;;;;;;;;;;;;;;;24.03;55.37;100830.72;5131530;27;20375;-62
2021/06/18 04:00:36;;;;;;;;;;;;;;;24.17;54.55;100836.28;5130257;27;20398;-62
2021/06/18 04:03:21;;;;;;;;;;;;;;;24.07;53.87;100845.41;5124243;27;19915;-62
2021/06/18 04:06:06;;;;;;;;;;;;;;;24.17;52.99;100839.06;5127503;27;19915;-63
2021/06/18 04:08:51;;;;;;;;;;;;;;;24.13;53.04;100843.78;5129924;27;19916;-64
2021/06/18 04:11:36;;;;;;;;;;;;;;;24.21;52.70;100848.16;5130722;27;19915;-63
2021/06/18 04:14:20;;;;;;;;;;;;;;;24.44;52.00;100867.09;5127487;27;19915;-63
2021/06/18 04:17:05;;;;;;;;;;;;;;;24.31;52.30;100858.44;5131431;27;19915;-63
2021/06/18 04:19:51;;;;;;;;;;;;;;;24.33;52.62;100858.78;5127287;27;20290;-63
2021/06/18 04:22:36;;;;;;;;;;;;;;;24.26;52.19;100853.28;5117665;27;19919;-62
2021/06/18 04:25:20;;;;;;;;;;;;;;;24.30;51.91;100848.50;5130360;27;19924;-62
2021/06/18 04:28:06;;;;;;;;;;;;;;;24.35;51.03;100853.63;5111977;27;19919;-63
2021/06/18 04:30:50;;;;;;;;;;;;;;;24.32;51.16;100865.56;5126912;27;20294;-63
2021/06/18 04:33:35;;;;;;;;;;;;;;;24.28;50.47;100857.25;5132918;27;19915;-63
2021/06/18 04:36:20;;;;;;;;;;;;;;;24.41;49.38;100859.56;5126793;27;19927;-63
2021/06/18 04:39:05;;;;;;;;;;;;;;;24.46;49.09;100859.94;5132636;27;20337;-62
2021/06/18 04:41:50;;;;;;;;;;;;;;;24.47;49.24;100867.09;5128463;27;19919;-62
2021/06/18 04:44:34;;;;;;;;;;;;;;;24.57;49.40;100868.22;5130373;27;19923;-62
2021/06/18 04:47:19;;;;;;;;;;;;;;;24.63;49.12;100886.06;5129367;27;19916;-63
2021/06/18 04:50:04;;;;;;;;;;;;;;;24.61;49.46;100889.25;5134013;27;19915;-61
2021/06/18 04:52:49;;;;;;;;;;;;;;;24.67;49.25;100887.63;5135270;27;19915;-61
2021/06/18 04:55:34;;;;;;;;;;;;;;;24.65;49.82;100889.22;5135252;27;19915;-61
2021/06/18 04:58:19;;;;;;;;;;;;;;;24.53;50.35;100887.69;5134839;27;20378;-62
2021/06/18 05:01:04;;;;;;;;;;;;;;;24.64;49.63;100891.19;5135207;27;19919;-63
2021/06/18 05:03:49;;;;;;;;;;;;;;;24.70;49.50;100889.56;5135293;27;19915;-63
2021/06/18 05:06:33;;;;;;;;;;;;;;;24.80;49.48;100890.69;5124641;27;19915;-61
2021/06/18 05:09:17;;;;;;;;;;;;;;;24.78;49.97;100892.31;5135085;27;19915;-62
2021/06/18 05:12:02;;;;;;;;;;;;;;;24.86;49.50;100896.63;5126154;27;19919;-61
2021/06/18 05:14:46;;;;;;;;;;;;;;;24.88;49.42;100895.06;5126006;27;19915;-62
2021/06/18 05:17:31;;;;;;;;;;;;;;;24.79;50.40;100900.25;5134588;27;19915;-63
2021/06/18 05:20:15;;;;;;;;;;;;;;;24.83;50.33;100906.59;5134738;27;19919;-62
2021/06/18 05:23:00;;;;;;;;;;;;;;;24.79;50.28;100899.47;5126111;27;19915;-62
2021/06/18 05:25:44;;;;;;;;;;;;;;;24.79;50.79;100902.25;5134642;27;19916;-63
2021/06/18 05:28:30;;;;;;;;;;;;;;;24.79;50.87;100910.59;5134457;27;19915;-62
2021/06/18 05:31:15;;;;;;;;;;;;;;;24.82;51.04;100912.56;5125839;27;19916;-61
2021/06/18 05:33:59;;;;;;;;;;;;;;;24.80;51.33;100912.97;5134898;27;20366;-61
2021/06/18 05:36:44;;;;;;;;;;;;;;;24.77;51.16;100912.97;5134374;27;19919;-63
2021/06/18 05:39:29;;;;;;;;;;;;;;;24.76;51.43;100919.75;5134488;27;19915;-61
2021/06/18 05:42:13;;;;;;;;;;;;;;;24.85;50.63;100932.00;5134452;27;19919;-64
2021/06/18 05:44:57;;;;;;;;;;;;;;;24.74;51.27;100924.94;5134294;27;19916;-61
2021/06/18 05:47:42;;;;;;;;;;;;;;;24.78;51.22;100928.50;5133369;27;19919;-62
2021/06/18 05:50:26;;;;;;;;;;;;;;;24.81;51.65;100930.44;5134179;27;19915;-62
2021/06/18 05:53:11;;;;;;;;;;;;;;;24.83;50.81;100934.41;5126003;27;19915;-62
2021/06/18 05:55:57;;;;;;;;;;;;;;;24.82;50.97;100926.47;5133987;27;19919;-61
2021/06/18 05:58:41;;;;;;;;;;;;;;;24.86;50.88;100921.66;5134041;27;19919;-61
2021/06/18 06:01:26;;;;;;;;;;;;;;;24.93;50.79;100918.88;5133962;27;19919;-61
2021/06/18 06:04:10;;;;;;;;;;;;;;;24.81;51.43;100924.88;5134103;27;19915;-61
2021/06/18 06:06:55;;;;;;;;;;;;;;;24.86;51.43;100927.22;5122599;27;19915;-62
2021/06/18 06:09:39;;;;;;;;;;;;;;;24.85;51.04;100918.09;5133703;27;19915;-63
2021/06/18 06:12:24;;;;;;;;;;;;;;;24.98;50.91;100919.25;5133771;27;19915;-62
2021/06/18 06:15:08;;;;;;;;;;;;;;;24.90;51.23;100919.69;5133910;27;19915;-61
2021/06/18 06:17:53;;;;;;;;;;;;;;;25.00;50.12;100922.38;5133578;27;19920;-62
2021/06/18 06:20:37;;;;;;;;;;;;;;;25.04;50.46;100927.94;5133804;27;19931;-63
2021/06/18 06:23:22;;;;;;;;;;;;;;;25.01;51.13;100934.31;5133612;27;20317;-62
2021/06/18 06:26:07;;;;;;;;;;;;;;;25.01;51.61;100931.53;5133586;27;19915;-63
2021/06/18 06:28:51;;;;;;;;;;;;;;;25.14;51.90;100936.19;5133449;27;19915;-61
2021/06/18 06:31:36;;;;;;;;;;;;;;;25.19;51.53;100928.63;5133622;27;19915;-63
2021/06/18 06:34:21;;;;;;;;;;;;;;;25.27;50.67;100936.50;5133719;27;19915;-63
2021/06/18 06:37:06;;;;;;;;;;;;;;;25.38;50.98;100942.78;5133494;27;19915;-62
2021/06/18 06:39:51;;;;;;;;;;;;;;;25.40;49.95;100945.94;5133288;27;19916;-63
2021/06/18 06:42:37;;;;;;;;;;;;;;;25.44;49.03;100946.72;5133436;27;19920;-62
2021/06/18 06:45:22;;;;;;;;;;;;;;;25.47;49.22;100945.09;5133280;27;19919;-63
2021/06/18 06:48:07;;;;;;;;;;;;;;;25.46;48.86;100949.88;5133337;28;19915;-63
2021/06/18 06:50:51;;;;;;;;;;;;;;;25.53;48.68;100955.38;5133428;28;19916;-62
2021/06/18 06:53:36;;;;;;;;;;;;;;;25.61;48.50;100958.91;5133249;28;19915;-63
2021/06/18 06:56:20;;;;;;;;;;;;;;;25.72;48.43;100969.97;5133308;28;19915;-63
2021/06/18 06:59:05;;;;;;;;;;;;;;;25.72;47.77;100967.97;5134536;27;19915;-63
2021/06/18 07:01:50;;;;;;;;;;;;;;;25.76;48.46;100965.94;5137626;27;20329;-61
2021/06/18 07:04:34;;;;;;;;;;;;;;;25.79;47.94;100972.69;5137477;27;19915;-62
2021/06/18 07:07:19;;;;;;;;;;;;;;;25.87;47.91;100963.84;5137461;27;19915;-61
2021/06/18 07:10:03;;;;;;;;;;;;;;;25.91;47.96;100963.78;5137265;27;19915;-63
2021/06/18 07:12:48;;;;;;;;;;;;;;;25.95;48.80;100970.16;5128965;27;19915;-63
2021/06/18 07:15:33;;;;;;;;;;;;;;;25.96;48.50;100964.13;5137206;27;19916;-61
2021/06/18 07:18:17;;;;;;;;;;;;;;;26.00;47.91;100955.75;5122105;27;20294;-62
2021/06/18 07:21:02;;;;;;;;;;;;;;;26.15;45.64;100957.19;5137144;27;19923;-62
2021/06/18 07:23:47;;;;;;;;;;;;;;;26.25;47.49;100958.28;5137162;27;19915;-63
2021/06/18 07:26:31;;;;;;;;;;;;;;;26.15;46.57;100954.41;5137009;27;19916;-62
2021/06/18 07:29:15;;;;;;;;;;;;;;;26.25;46.43;100955.50;5136997;27;19916;-63
2021/06/18 07:32:00;;;;;;;;;;;;;;;26.37;46.68;100952.94;5136940;27;19915;-63
2021/06/18 07:34:45;;;;;;;;;;;;;;;26.59;44.35;100958.25;5136991;27;19915;-64
2021/06/18 07:37:29;;;;;;;;;;;;;;;26.61;44.48;100948.28;5136713;27;19916;-63
2021/06/18 07:40:15;;;;;;;;;;;;;;;26.65;42.86;100953.81;5136850;27;19916;-63
2021/06/18 07:43:00;;;;;;;;;;;;;;;26.84;42.77;100947.53;5136705;27;19920;-63
2021/06/18 07:45:44;;;;;;;;;;;;;;;26.93;41.94;100950.63;5136777;27;19915;-62
2021/06/18 07:48:28;;;;;;;;;;;;;;;27.15;41.52;100951.09;5136938;27;19915;-62
2021/06/18 07:51:13;;;;;;;;;;;;;;;27.35;42.96;100956.78;5128034;27;19919;-63
2021/06/18 07:53:57;;;;;;;;;;;;;;;27.37;42.28;100952.34;5136408;27;19915;-62
2021/06/18 07:56:44;;;;;;;;;;;;;;;27.18;41.86;100956.63;5136798;27;19916;-62
2021/06/18 07:59:28;;;;;;;;;;;;;;;27.22;42.15;100956.59;5127790;27;19916;-64
2021/06/18 08:02:13;;;;;;;;;;;;;;;27.37;42.76;100954.34;5136306;27;20382;-63
2021/06/18 08:04:57;;;;;;;;;;;;;;;27.50;41.77;100949.75;5136412;27;19915;-63
2021/06/18 08:07:42;;;;;;;;;;;;;;;27.77;40.41;100950.47;5136428;27;19916;-63
2021/06/18 08:10:27;;;;;;;;;;;;;;;27.73;39.53;100943.38;5135121;27;19919;-64
2021/06/18 08:13:11;;;;;;;;;;;;;;;28.03;41.11;100941.19;5136098;27;19916;-64
2021/06/18 08:15:56;;;;;;;;;;;;;;;27.90;39.95;100936.66;5136169;27;19916;-63
2021/06/18 08:18:41;;;;;;;;;;;;;;;28.03;39.35;100938.41;5135949;27;19916;-62
2021/06/18 08:21:25;;;;;;;;;;;;;;;28.07;39.93;100938.31;5136044;27;20390;-63
2021/06/18 08:24:10;;;;;;;;;;;;;;;28.14;39.55;100938.19;5135927;27;19916;-63
2021/06/18 08:26:54;;;;;;;;;;;;;;;28.13;39.56;100930.25;5135899;27;20375;-62
2021/06/18 08:29:39;;;;;;;;;;;;;;;28.13;41.28;100942.25;5135812;27;19916;-62
2021/06/18 08:32:23;;;;;;;;;;;;;;;28.26;42.02;100933.97;5135851;27;19916;-62
2021/06/18 08:35:08;;;;;;;;;;;;;;;28.41;39.50;100940.84;5135686;27;19915;-62
2021/06/18 08:37:53;;;;;;;;;;;;;;;28.26;40.62;100939.56;5121795;27;19919;-62
2021/06/18 08:40:38;;;;;;;;;;;;;;;28.24;39.93;100936.44;5135877;27;19915;-61
2021/06/18 08:43:23;;;;;;;;;;;;;;;28.31;40.18;100937.06;5135707;27;19923;-63
2021/06/18 08:46:07;;;;;;;;;;;;;;;28.49;39.80;100937.50;5135336;27;20298;-63
2021/06/18 08:48:52;;;;;;;;;;;;;;;28.54;39.64;100933.38;5128526;27;19915;-63
2021/06/18 08:51:36;;;;;;;;;;;;;;;28.44;40.19;100935.16;5135331;27;20413;-63
2021/06/18 08:54:21;;;;;;;;;;;;;;;28.56;40.36;100936.53;5135396;27;19915;-62
2021/06/18 08:57:06;;;;;;;;;;;;;;;28.46;40.18;100931.94;5135174;27;20346;-62
2021/06/18 08:59:50;;;;;;;;;;;;;;;28.58;40.76;100931.28;5135367;27;19915;-63
2021/06/18 09:02:35;;;;;;;;;;;;;;;28.47;39.52;100934.31;5135157;27;19919;-63
2021/06/18 09:05:21;;;;;;;;;;;;;;;28.56;39.56;100930.94;5135576;27;19916;-62
2021/06/18 09:08:05;;;;;;;;;;;;;;;28.56;40.12;100930.94;5135416;27;19915;-63
2021/06/18 09:10:51;;;;;;;;;;;;;;;28.69;40.45;100926.25;5126357;27;19915;-62
2021/06/18 09:13:35;;;;;;;;;;;;;;;28.71;40.19;100921.00;5135070;27;19915;-62
2021/06/18 09:16:21;;;;;;;;;;;;;;;28.80;41.09;100917.66;5134810;27;19915;-61
2021/06/18 09:19:22;;;;;;;;;;;;;;;29.13;39.46;100919.25;5134906;27;20386;-63
2021/06/18 09:22:08;;;;;;;;;;;;;;;29.07;39.79;100920.97;5134445;27;20382;-63
2021/06/18 09:25:01;;;;;;;;;;;;;;;28.88;40.79;100919.03;5135154;27;20366;-64
2021/06/18 09:27:49;;;;;;;;;;;;;;;28.92;40.94;100919.75;5134595;27;19916;-64
2021/06/18 09:30:34;;;;;;;;;;;;;;;28.56;42.24;100907.75;5134647;27;19915;-65
2021/06/18 09:33:25;;;;;;;;;;;;;;;28.91;41.13;100921.75;5134511;27;19916;-63
2021/06/18 09:36:10;;;;;;;;;;;;;;;29.37;39.97;100917.06;5134526;27;19915;-65
2021/06/18 09:38:59;;;;;;;;;;;;;;;29.31;39.25;100911.19;5134362;27;19933;-65
2021/06/18 09:41:45;;;;;;;;;;;;;;;29.29;39.02;100918.44;5134523;27;20402;-64
2021/06/18 09:44:30;;;;;;;;;;;;;;;29.11;38.47;100915.28;5141220;27;19915;-63
2021/06/18 09:47:20;;;;;;;;;;;;;;;29.32;38.83;100914.78;5134287;27;20286;-62
2021/06/18 09:50:20;;;;;;;;;;;;;;;28.34;41.92;100925.00;5134205;27;19916;-64
2021/06/18 09:53:17;;;;;;;;;;;;;;;29.04;39.85;100923.88;5134165;27;19916;-63
2021/06/18 09:56:04;;;;;;;;;;;;;;;29.30;39.47;100917.22;5134191;27;19916;-63
2021/06/18 09:58:48;;;;;;;;;;;;;;;29.38;38.68;100917.84;5134170;27;20396;-64
2021/06/18 10:01:35;;;;;;;;;;;;;;;29.22;39.99;100911.00;5134110;27;19928;-64
2021/06/18 10:04:20;;;;;;;;;;;;;;;28.56;41.90;100922.53;5133917;27;19916;-63
2021/06/18 10:07:04;;;;;;;;;;;;;;;28.46;40.69;100921.53;5133969;27;20379;-63
2021/06/18 10:09:49;;;;;;;;;;;;;;;28.53;41.64;100922.63;5133769;27;19915;-64
2021/06/18 10:12:34;;;;;;;;;;;;;;;28.79;40.95;100922.47;5134005;27;20359;-63
2021/06/18 10:15:20;;;;;;;;;;;;;;;28.76;41.12;100916.91;5133717;27;19916;-63
2021/06/18 10:18:10;;;;;;;;;;;;;;;28.99;40.62;100913.19;5133230;27;19915;-64
2021/06/18 10:20:56;;;;;;;;;;;;;;;28.79;41.00;100911.25;5133552;27;19915;-63
2021/06/18 10:23:41;;;;;;;;;;;;;;;29.25;41.23;100909.34;5133757;27;19920;-63
2021/06/18 10:26:27;;;;;;;;;;;;;;;29.34;40.43;100912.34;5133523;27;19916;-64
2021/06/18 10:29:27;;;;;;;;;;;;;;;29.70;39.63;100917.81;5122293;27;19915;-64
2021/06/18 10:32:26;;;;;;;;;;;;;;;29.85;40.39;100919.00;5133470;27;20295;-64
2021/06/18 10:35:31;;;;;;;;;;;;;;;29.70;38.66;100917.81;5132894;27;20383;-63
2021/06/18 10:38:25;;;;;;;;;;;;;;;29.60;37.52;100916.88;5133356;27;19915;-65
2021/06/18 10:41:12;;;;;;;;;;;;;;;29.78;39.28;100913.56;5133289;27;19916;-65
2021/06/18 10:43:57;;;;;;;;;;;;;;;29.96;38.52;100921.53;5133468;27;19919;-64
2021/06/18 10:46:43;;;;;;;;;;;;;;;29.60;39.59;100914.06;5133142;27;20378;-63
2021/06/18 10:49:37;;;;;;;;;;;;;;;29.41;40.51;100912.16;5133630;28;19915;-63
2021/06/18 10:52:26;;;;;;;;;;;;;;;29.35;39.73;100908.31;5133357;28;19916;-62
2021/06/18 10:55:11;;;;;;;;;;;;;;;29.67;39.25;100908.25;5133374;28;19916;-64
2021/06/18 10:57:55;;;;;;;;;;;;;;;29.46;40.01;100902.44;5132868;28;19937;-64
2021/06/18 11:00:41;;;;;;;;;;;;;;;29.38;40.01;100896.22;5133222;28;19915;-63
2021/06/18 11:03:44;;;;;;;;;;;;;;;29.67;39.95;100899.06;5133101;28;19919;-63
2021/06/18 11:06:48;;;;;;;;;;;;;;;29.65;40.19;100901.53;5123318;27;19916;-64
2021/06/18 11:09:44;;;;;;;;;;;;;;;29.80;40.22;100888.69;5133066;28;19949;-64
2021/06/18 11:12:31;;;;;;;;;;;;;;;29.95;39.79;100889.91;5133237;28;19915;-64
2021/06/18 11:15:16;;;;;;;;;;;;;;;29.94;38.81;100887.53;5133251;28;19916;-63
2021/06/18 11:18:03;;;;;;;;;;;;;;;30.21;39.16;100885.16;5118706;28;19923;-64
2021/06/18 11:20:51;;;;;;;;;;;;;;;29.62;40.42;100891.19;5132558;28;19919;-63
2021/06/18 11:23:38;;;;;;;;;;;;;;;30.09;38.95;100885.88;5124386;27;19920;-63
2021/06/18 11:26:22;;;;;;;;;;;;;;;30.27;39.10;100883.38;5132808;28;19915;-63
2021/06/18 11:29:25;;;;;;;;;;;;;;;30.05;39.28;100876.78;5133019;28;19919;-63
2021/06/18 11:32:30;;;;;;;;;;;;;;;29.93;39.07;100875.53;5133026;28;19915;-63
2021/06/18 11:35:33;;;;;;;;;;;;;;;30.57;37.60;100880.06;5128976;28;19916;-63
2021/06/18 11:38:18;;;;;;;;;;;;;;;30.20;38.62;100877.16;5132987;28;19915;-64
2021/06/18 11:41:05;;;;;;;;;;;;;;;30.49;37.94;100878.69;5132720;28;20387;-63
2021/06/18 11:43:51;;;;;;;;;;;;;;;30.80;37.60;100864.09;5132946;28;19919;-63
2021/06/18 11:46:36;;;;;;;;;;;;;;;30.30;38.71;100871.22;5136362;27;19915;-63
2021/06/18 11:49:22;;;;;;;;;;;;;;;30.73;38.29;100864.34;5136744;27;19915;-62
2021/06/18 11:52:09;;;;;;;;;;;;;;;30.69;37.84;100875.66;5127876;27;19916;-63
2021/06/18 11:54:57;;;;;;;;;;;;;;;30.23;40.23;100874.25;5127970;27;19916;-62
2021/06/18 11:57:41;;;;;;;;;;;;;;;30.47;39.31;100869.94;5123084;27;19915;-63
2021/06/18 12:00:32;;;;;;;;;;;;;;;30.54;40.06;100869.72;5136454;27;20379;-64
2021/06/18 12:03:28;;;;;;;;;;;;;;;30.84;39.53;100859.91;5136246;27;19919;-63
2021/06/18 12:06:14;;;;;;;;;;;;;;;30.99;39.69;100866.66;5136178;27;19916;-63
2021/06/18 12:09:00;;;;;;;;;;;;;;;30.87;38.78;100858.25;5136134;27;19916;-62
2021/06/18 12:11:47;;;;;;;;;;;;;;;30.74;39.20;100854.66;5127899;27;19915;-62
2021/06/18 12:14:43;;;;;;;;;;;;;;;30.64;39.93;100867.00;5136232;27;19915;-62
2021/06/18 12:17:28;;;;;;;;;;;;;;;30.49;39.20;100864.66;5135900;27;19915;-63
2021/06/18 12:20:21;;;;;;;;;;;;;;;30.36;39.40;100861.03;5136040;27;20287;-63
2021/06/18 12:23:07;;;;;;;;;;;;;;;30.37;39.63;100859.81;5135929;27;19919;-63
2021/06/18 12:25:53;;;;;;;;;;;;;;;30.41;39.97;100854.06;5136034;27;20540;-64
2021/06/18 12:28:38;;;;;;;;;;;;;;;30.59;38.99;100854.31;5136002;27;19915;-62
2021/06/18 12:31:22;;;;;;;;;;;;;;;30.86;38.04;100849.03;5135775;27;19916;-63
2021/06/18 12:34:08;;;;;;;;;;;;;;;30.69;38.61;100847.56;5136022;27;19919;-63
2021/06/18 12:37:11;;;;;;;;;;;;;;;30.89;37.79;100844.53;5135735;27;19915;-63
2021/06/18 12:39:57;;;;;;;;;;;;;;;30.83;37.42;100837.94;5135683;27;19915;-63
2021/06/18 12:42:49;;;;;;;;;;;;;;;30.92;38.01;100849.25;5135598;27;19919;-63
2021/06/18 12:45:37;;;;;;;;;;;;;;;30.71;38.39;100844.31;5126682;27;19919;-63
2021/06/18 12:48:24;;;;;;;;;;;;;;;30.94;38.92;100841.13;5135470;27;19915;-63
2021/06/18 12:51:17;;;;;;;;;;;;;;;30.80;38.46;100842.41;5135201;27;19915;-62
2021/06/18 12:54:06;;;;;;;;;;;;;;;30.72;38.63;100834.66;5135512;27;19916;-62
2021/06/18 12:56:51;;;;;;;;;;;;;;;30.52;39.12;100835.69;5114245;28;19915;-62
2021/06/18 12:59:39;;;;;;;;;;;;;;;30.30;39.25;100831.94;5114709;28;19915;-62
2021/06/18 13:02:33;;;;;;;;;;;;;;;30.57;37.94;100832.34;5114743;28;19924;-63
2021/06/18 13:05:19;;;;;;;;;;;;;;;30.19;39.30;100825.88;5114619;28;20192;-63
2021/06/18 13:08:17;;;;;;;;;;;;;;;29.91;39.59;100833.13;5114615;28;19928;-64
2021/06/18 13:11:02;;;;;;;;;;;;;;;28.98;42.04;100825.59;5114737;28;19915;-63
2021/06/18 13:13:46;;;;;;;;;;;;;;;29.77;41.23;100817.44;5114574;28;19923;-64
2021/06/18 13:16:31;;;;;;;;;;;;;;;30.20;39.57;100824.66;5114248;28;19915;-63
2021/06/18 13:19:18;;;;;;;;;;;;;;;29.99;40.52;100814.06;5114360;28;19920;-62
2021/06/18 13:22:08;;;;;;;;;;;;;;;30.56;39.98;100815.94;5114230;28;19927;-63
2021/06/18 13:24:56;;;;;;;;;;;;;;;30.62;39.06;100819.75;5114263;28;19919;-62
2021/06/18 13:27:45;;;;;;;;;;;;;;;30.44;39.46;100811.06;5100926;28;19916;-62
2021/06/18 13:30:30;;;;;;;;;;;;;;;30.15;39.87;100813.97;5099500;28;19915;-64
2021/06/18 13:33:15;;;;;;;;;;;;;;;29.17;41.90;100809.88;5120799;28;20359;-62
2021/06/18 13:36:00;;;;;;;;;;;;;;;28.61;42.20;100803.69;5114100;28;20295;-63
2021/06/18 13:38:47;;;;;;;;;;;;;;;29.67;40.10;100807.31;5113867;28;20383;-63
2021/06/18 13:41:42;;;;;;;;;;;;;;;29.58;39.69;100803.59;5113990;28;19916;-63
2021/06/18 13:44:28;;;;;;;;;;;;;;;29.56;39.61;100811.69;5113736;28;19920;-64
2021/06/18 13:47:12;;;;;;;;;;;;;;;29.48;40.19;100810.28;5113809;28;19916;-63
2021/06/18 13:50:03;;;;;;;;;;;;;;;29.62;39.56;100810.69;5107414;28;19915;-63
2021/06/18 13:52:50;;;;;;;;;;;;;;;28.62;42.35;100810.84;5112773;28;19916;-64
2021/06/18 13:55:35;;;;;;;;;;;;;;;29.43;39.61;100813.63;5120457;28;19916;-63
2021/06/18 13:58:20;;;;;;;;;;;;;;;30.21;39.04;100817.81;5113606;28;19915;-62
2021/06/18 14:01:05;;;;;;;;;;;;;;;30.01;39.32;100825.63;5113376;28;19916;-61
2021/06/18 14:03:50;;;;;;;;;;;;;;;30.18;39.12;100818.69;5113623;28;19920;-62
2021/06/18 14:06:34;;;;;;;;;;;;;;;29.72;40.12;100815.19;5113378;28;20303;-62
2021/06/18 14:09:20;;;;;;;;;;;;;;;30.12;38.48;100814.88;5112613;28;19916;-64
2021/06/18 14:12:06;;;;;;;;;;;;;;;30.35;37.75;100803.31;5113295;28;19916;-63
2021/06/18 14:17:45;;;;;;;;;;;;;;;29.38;40.38;100795.34;5113057;28;19920;-63